Terminal Aerodrome Forecast
Issued by NWS Burlington, VT

Home | Current Version | Previous Version | Text Only | Print | Product List | Glossary On
Versions: 1 2 3 4 5 6 7 8 9 10 11 12 13 14 15 16 17 18 19
000
FTUS41 KBTV 291723
TAFBTV
TAF
KBTV 291723Z 2918/3018 19006KT P6SM FEW050 SCT200
     FM300000 17004KT P6SM SCT200
     FM301200 18010KT P6SM SCT050 BKN120
     FM301700 18011KT P6SM VCSH BKN050 BKN080=

USA.gov is the U.S. government's official web portal to all federal, state and local government web resources and services.